Time;durP1;ratioP1;P1;durP2;ratioP2;P2;SDS_P1;SDS_P2;PMS_P1;PMS_P2;Temp;Humidity;BMP_temperature;BMP_pressure;BME280_temperature;BME280_humidity;BME280_pressure;Samples;Min_cycle;Max_cycle;Signal;HPM_P1;HPM_P2
2022/08/18 00:00:23;;;;;;;13.98;8.05;;;;;;;22.31;47.22;99690.41;6227722;22;20097;-67
2022/08/18 00:02:48;;;;;;;17.10;8.63;;;;;;;22.30;47.00;99690.59;6200322;22;20020;-66
2022/08/18 00:05:12;;;;;;;18.75;8.52;;;;;;;22.29;46.84;99683.47;6227873;22;20095;-67
2022/08/18 00:07:38;;;;;;;21.35;8.38;;;;;;;22.29;46.84;99697.88;6201083;22;20035;-69
2022/08/18 00:10:04;;;;;;;13.00;8.38;;;;;;;22.27;47.01;99696.38;6177448;22;20030;-68
2022/08/18 00:12:37;;;;;;;16.92;8.95;;;;;;;22.27;47.17;99693.66;6229983;22;20019;-68
2022/08/18 00:15:05;;;;;;;17.75;8.75;;;;;;;22.23;47.29;99712.22;6170774;22;20437;-68
2022/08/18 00:17:31;;;;;;;15.07;8.50;;;;;;;22.22;47.29;99706.97;6225866;22;20098;-70
2022/08/18 00:19:57;;;;;;;19.48;8.77;;;;;;;22.20;47.57;99709.00;6198510;22;20423;-65
2022/08/18 00:22:22;;;;;;;20.42;8.75;;;;;;;22.24;47.67;99710.31;6203033;22;20022;-65
2022/08/18 00:24:53;;;;;;;19.60;8.68;;;;;;;22.17;47.80;99710.22;6230603;22;20019;-66
2022/08/18 00:27:29;;;;;;;14.30;8.82;;;;;;;22.22;47.83;99717.81;6152491;22;20443;-66
2022/08/18 00:29:57;;;;;;;19.17;8.90;;;;;;;22.12;48.38;99719.94;6203235;22;20137;-66
2022/08/18 00:32:24;;;;;;;16.05;8.95;;;;;;;22.08;48.43;99712.16;6177896;22;20019;-68
2022/08/18 00:34:51;;;;;;;17.23;8.80;;;;;;;22.00;48.64;99708.66;6178096;22;20022;-68
2022/08/18 00:37:15;;;;;;;14.07;8.32;;;;;;;21.91;48.68;99702.41;6229931;22;20016;-67
2022/08/18 00:39:41;;;;;;;19.27;9.20;;;;;;;21.86;48.96;99710.25;6230224;22;20012;-68
2022/08/18 00:42:25;;;;;;;17.77;9.43;;;;;;;21.82;49.02;99705.34;6230559;22;20476;-65
2022/08/18 00:44:49;;;;;;;16.85;8.27;;;;;;;21.72;49.28;99706.44;6203159;22;20403;-65
2022/08/18 00:47:14;;;;;;;14.43;8.63;;;;;;;21.67;49.54;99706.13;6229920;22;20039;-68
2022/08/18 00:49:41;;;;;;;16.83;9.68;;;;;;;21.64;49.76;99703.78;6229946;22;20015;-68
2022/08/18 00:52:08;;;;;;;20.98;9.48;;;;;;;21.61;49.93;99708.72;6230019;22;20023;-66
2022/08/18 00:54:36;;;;;;;14.05;8.43;;;;;;;21.58;50.12;99719.91;6202546;22;20454;-68
2022/08/18 00:57:06;;;;;;;19.55;8.98;;;;;;;21.61;50.05;99720.41;6177761;22;20351;-67
2022/08/18 01:00:10;;;;;;;17.30;8.80;;;;;;;21.59;49.79;99724.31;6230010;22;20042;-68
2022/08/18 01:02:39;;;;;;;17.35;8.13;;;;;;;21.53;50.24;99727.75;6230014;22;20026;-65
2022/08/18 01:05:20;;;;;;;22.30;8.07;;;;;;;21.55;49.83;99728.44;6202327;22;20473;-68
2022/08/18 01:08:16;;;;;;;20.60;9.40;;;;;;;21.46;50.07;99730.31;6229674;22;20022;-66
2022/08/18 01:10:41;;;;;;;16.52;8.75;;;;;;;21.46;50.10;99724.03;6230024;22;20019;-66
2022/08/18 01:13:07;;;;;;;13.50;8.38;;;;;;;21.43;50.09;99724.44;6202550;22;20020;-68
2022/08/18 01:15:32;;;;;;;19.58;9.05;;;;;;;21.41;50.17;99708.31;6230042;22;20042;-67
2022/08/18 01:23:56;;;;;;;16.48;9.85;;;;;;;21.37;50.54;99706.97;6229088;22;20026;-66
2022/08/18 01:26:24;;;;;;;15.10;8.45;;;;;;;21.35;50.46;99720.72;6202651;22;20489;-66
2022/08/18 01:28:49;;;;;;;22.08;9.40;;;;;;;21.29;50.69;99715.16;6229729;22;20324;-68
2022/08/18 01:31:38;;;;;;;18.13;9.10;;;;;;;21.32;50.56;99707.53;6229482;22;20069;-66
2022/08/18 01:34:05;;;;;;;17.08;8.55;;;;;;;21.25;50.87;99720.09;6229866;22;20039;-68
2022/08/18 01:36:36;;;;;;;12.55;8.90;;;;;;;21.23;51.15;99724.81;6229912;22;20043;-66
2022/08/18 01:39:01;;;;;;;14.73;8.32;;;;;;;21.20;50.96;99714.34;6229450;22;20024;-65
2022/08/18 01:41:25;;;;;;;12.20;7.75;;;;;;;21.17;51.23;99714.66;6229743;22;20015;-66
2022/08/18 01:43:50;;;;;;;14.43;8.55;;;;;;;21.14;51.68;99714.16;6229227;22;20408;-67
2022/08/18 01:46:20;;;;;;;14.02;8.85;;;;;;;21.11;51.54;99718.06;6202839;22;20027;-70
2022/08/18 01:48:47;;;;;;;14.10;8.57;;;;;;;21.08;51.62;99715.72;6176857;22;20016;-69
2022/08/18 01:51:12;;;;;;;14.60;8.35;;;;;;;21.02;51.67;99722.69;6229449;22;20037;-68
2022/08/18 01:53:37;;;;;;;19.80;9.13;;;;;;;21.01;51.67;99725.56;6229871;22;20039;-68
2022/08/18 01:56:04;;;;;;;17.38;9.52;;;;;;;20.99;52.00;99730.34;6202026;22;20023;-67
2022/08/18 01:58:29;;;;;;;13.75;9.13;;;;;;;20.96;51.86;99720.69;6202215;22;20008;-66
2022/08/18 02:00:56;;;;;;;13.90;8.98;;;;;;;20.98;51.77;99731.34;6202507;22;20101;-68
2022/08/18 02:03:25;;;;;;;11.65;9.00;;;;;;;20.93;51.81;99736.44;6176908;22;20020;-67
2022/08/18 02:05:51;;;;;;;16.27;9.18;;;;;;;20.90;52.45;99721.34;6177243;22;20355;-65
2022/08/18 02:08:16;;;;;;;24.35;9.50;;;;;;;20.88;52.38;99722.56;6229535;22;20026;-66
2022/08/18 02:10:41;;;;;;;19.38;10.43;;;;;;;20.86;52.37;99725.44;6202231;22;20016;-66
2022/08/18 02:13:07;;;;;;;17.30;8.80;;;;;;;20.86;52.40;99733.59;6202491;22;20080;-68
2022/08/18 02:15:31;;;;;;;15.77;9.30;;;;;;;20.87;52.11;99743.41;6202656;22;20042;-67
2022/08/18 02:17:56;;;;;;;17.90;10.40;;;;;;;20.88;52.18;99749.69;6176754;22;20011;-66
2022/08/18 02:20:21;;;;;;;16.13;9.88;;;;;;;20.88;52.19;99746.97;6177009;22;20023;-65
2022/08/18 02:22:48;;;;;;;20.85;11.50;;;;;;;20.88;52.00;99752.38;6202374;22;20047;-65
2022/08/18 02:25:14;;;;;;;20.40;10.82;;;;;;;20.86;52.27;99746.28;6229232;22;20035;-76
2022/08/18 02:27:39;;;;;;;18.10;11.20;;;;;;;20.88;52.91;99744.25;6202138;22;20034;-66
2022/08/18 02:30:07;;;;;;;16.27;10.00;;;;;;;20.87;53.95;99754.25;6201512;22;20027;-66
2022/08/18 02:32:32;;;;;;;20.67;10.88;;;;;;;20.85;53.63;99763.56;6229276;22;20042;-66
2022/08/18 02:34:57;;;;;;;21.92;10.45;;;;;;;20.82;53.60;99766.59;6175784;22;20012;-72
2022/08/18 02:37:22;;;;;;;16.90;12.00;;;;;;;20.81;53.20;99765.75;6228958;22;20023;-64
2022/08/18 02:39:48;;;;;;;16.88;11.48;;;;;;;20.80;53.01;99764.06;6229316;22;20011;-64
2022/08/18 02:42:13;;;;;;;20.90;11.70;;;;;;;20.80;52.94;99757.81;6229539;22;20119;-64
2022/08/18 02:44:38;;;;;;;24.55;11.15;;;;;;;20.82;52.97;99755.78;6229414;22;20015;-66
2022/08/18 02:47:03;;;;;;;22.85;11.55;;;;;;;20.84;52.89;99757.28;6177386;22;20027;-64
2022/08/18 02:49:28;;;;;;;20.05;10.70;;;;;;;20.89;52.73;99765.75;6229499;22;20043;-64
2022/08/18 02:51:53;;;;;;;16.00;10.60;;;;;;;20.95;52.95;99767.78;6202011;22;20038;-66
2022/08/18 02:54:19;;;;;;;18.65;11.32;;;;;;;20.97;52.73;99760.31;6176972;22;20015;-65
2022/08/18 02:56:44;;;;;;;23.27;11.80;;;;;;;21.00;52.60;99756.41;6177160;22;20026;-62
2022/08/18 02:59:15;;;;;;;20.58;9.70;;;;;;;21.03;52.53;99766.91;6177010;22;20012;-73
2022/08/18 03:01:43;;;;;;;19.42;11.30;;;;;;;21.03;52.49;99775.03;6177014;22;20012;-76
2022/08/18 03:04:09;;;;;;;17.30;11.80;;;;;;;21.05;52.61;99772.16;6229202;22;20019;-67
2022/08/18 03:06:36;;;;;;;17.40;11.25;;;;;;;21.07;52.55;99760.13;6229701;22;20015;-74
2022/08/18 03:09:02;;;;;;;15.80;10.82;;;;;;;21.07;52.48;99765.53;6202340;22;20355;-72
2022/08/18 03:11:27;;;;;;;23.70;11.77;;;;;;;21.13;52.41;99767.53;6229470;22;20077;-64
2022/08/18 03:13:54;;;;;;;20.30;11.80;;;;;;;21.19;52.42;99766.91;6229119;22;20360;-65
2022/08/18 03:16:20;;;;;;;16.15;11.70;;;;;;;21.20;52.25;99765.88;6202297;22;20027;-63
2022/08/18 03:18:45;;;;;;;22.95;12.25;;;;;;;21.24;52.20;99759.06;6201839;22;20065;-62
2022/08/18 03:21:13;;;;;;;21.48;12.38;;;;;;;21.24;52.39;99769.91;6229586;22;20023;-65
2022/08/18 03:23:39;;;;;;;21.42;12.27;;;;;;;21.30;52.19;99765.66;6202087;22;20011;-68
2022/08/18 03:26:04;;;;;;;23.35;12.02;;;;;;;21.35;52.04;99765.97;6176860;22;20086;-69
2022/08/18 03:28:29;;;;;;;18.15;12.80;;;;;;;21.44;51.56;99762.22;6228968;22;20328;-64
2022/08/18 03:30:54;;;;;;;24.60;12.88;;;;;;;21.48;51.76;99763.53;6177120;22;20015;-66
2022/08/18 03:33:20;;;;;;;21.73;13.60;;;;;;;21.56;51.48;99766.22;6202296;22;20020;-65
2022/08/18 03:35:44;;;;;;;23.92;13.88;;;;;;;21.62;51.45;99753.81;6202048;22;20016;-65
2022/08/18 03:38:10;;;;;;;28.75;14.43;;;;;;;21.70;51.44;99756.47;6177120;22;20073;-66
2022/08/18 03:40:50;;;;;;;22.17;14.65;;;;;;;21.85;51.05;99762.00;6202315;22;20454;-64
2022/08/18 03:43:15;;;;;;;32.65;16.55;;;;;;;21.84;50.80;99753.00;6228982;22;20022;-64
2022/08/18 03:45:40;;;;;;;29.83;16.52;;;;;;;21.93;50.68;99754.66;6201934;22;20016;-65
2022/08/18 03:48:05;;;;;;;28.35;17.65;;;;;;;22.01;50.30;99751.91;6176552;22;20016;-65
2022/08/18 03:50:31;;;;;;;28.13;17.23;;;;;;;22.13;50.65;99760.47;6201914;22;20016;-65
2022/08/18 03:52:58;;;;;;;31.05;18.17;;;;;;;22.26;50.16;99765.31;6176742;22;20011;-65
2022/08/18 03:55:23;;;;;;;31.67;19.20;;;;;;;22.37;49.97;99757.56;6228901;22;20016;-65
2022/08/18 03:57:47;;;;;;;41.65;25.30;;;;;;;22.49;49.32;99759.84;6176268;22;20077;-65
2022/08/18 04:00:12;;;;;;;40.40;24.88;;;;;;;22.49;49.36;99760.69;6176806;22;20043;-65
2022/08/18 04:02:38;;;;;;;36.75;23.27;;;;;;;22.45;49.71;99762.09;6176695;22;20096;-66
2022/08/18 04:05:05;;;;;;;45.67;27.67;;;;;;;22.35;49.56;99766.91;6196738;23;20351;-66
2022/08/18 04:07:29;;;;;;;45.90;29.38;;;;;;;22.29;49.67;99756.78;6171441;23;20428;-66
2022/08/18 04:09:54;;;;;;;58.25;36.20;;;;;;;22.30;49.61;99766.63;6196576;23;20458;-65
2022/08/18 04:12:19;;;;;;;55.47;38.10;;;;;;;22.33;49.45;99763.56;6196725;23;20070;-66
2022/08/18 04:14:47;;;;;;;68.50;45.53;;;;;;;22.40;48.97;99762.66;6196762;23;20022;-65
2022/08/18 04:17:12;;;;;;;61.22;46.03;;;;;;;22.44;49.11;99765.84;6196801;23;20501;-64
2022/08/18 04:19:36;;;;;;;67.43;46.25;;;;;;;22.53;49.14;99762.03;6146248;23;20347;-64
2022/08/18 04:22:02;;;;;;;87.03;60.40;;;;;;;22.80;48.33;99764.16;6198412;22;20027;-65
2022/08/18 04:24:29;;;;;;;93.38;63.58;;;;;;;23.00;47.98;99758.22;6198383;22;20023;-65
2022/08/18 04:26:55;;;;;;;129.57;89.47;;;;;;;23.22;46.69;99765.44;6198317;22;20103;-65
2022/08/18 04:29:20;;;;;;;123.70;86.38;;;;;;;23.28;46.92;99759.22;6196617;23;20016;-64
2022/08/18 04:31:46;;;;;;;116.35;81.82;;;;;;;23.38;46.85;99770.66;6171347;23;20027;-63
2022/08/18 04:34:12;;;;;;;145.63;99.05;;;;;;;23.55;46.56;99773.22;6171415;23;20423;-65
2022/08/18 04:36:37;;;;;;;126.95;91.82;;;;;;;23.72;46.33;99775.53;6198726;22;20024;-64
2022/08/18 04:39:05;;;;;;;168.38;121.32;;;;;;;23.92;45.66;99774.94;6198684;22;20020;-64
2022/08/18 04:41:30;;;;;;;168.63;119.40;;;;;;;24.13;45.52;99781.25;6171903;23;20016;-64
2022/08/18 04:44:00;;;;;;;178.90;126.47;;;;;;;24.39;44.71;99777.09;6196901;23;20102;-65
2022/08/18 04:46:27;;;;;;;197.80;139.27;;;;;;;24.58;43.53;99781.91;6146402;23;20083;-65
2022/08/18 04:48:57;;;;;;;192.95;139.07;;;;;;;24.59;43.26;99780.88;6198597;22;20024;-63
2022/08/18 04:51:22;;;;;;;180.13;131.93;;;;;;;24.61;43.30;99778.78;6198930;22;20020;-65
2022/08/18 04:53:47;;;;;;;172.55;127.10;;;;;;;24.66;43.22;99786.38;6198701;22;20016;-65
2022/08/18 04:56:24;;;;;;;172.32;126.97;;;;;;;24.81;42.99;99784.41;6198983;23;20472;-65
2022/08/18 04:58:50;;;;;;;168.25;127.15;;;;;;;24.96;42.73;99788.75;6198618;23;20016;-65
2022/08/18 05:01:16;;;;;;;173.13;128.95;;;;;;;24.91;42.70;99793.94;6173180;23;20015;-68
2022/08/18 05:03:41;;;;;;;173.88;128.05;;;;;;;24.95;42.33;99789.78;6199999;22;20012;-67
2022/08/18 05:06:06;;;;;;;170.23;127.68;;;;;;;24.94;42.32;99790.81;6226159;22;20054;-67
2022/08/18 05:08:31;;;;;;;174.85;126.60;;;;;;;25.05;42.38;99791.34;6203153;22;20025;-63
2022/08/18 05:10:56;;;;;;;171.43;125.57;;;;;;;25.11;42.08;99785.06;6203138;22;20102;-65
2022/08/18 05:13:21;;;;;;;153.20;116.47;;;;;;;25.38;41.55;99789.66;6203783;22;20016;-66
2022/08/18 05:15:52;;;;;;;154.18;114.80;;;;;;;25.82;40.95;99797.47;6230514;22;20422;-66
2022/08/18 05:18:19;;;;;;;152.27;114.80;;;;;;;26.16;40.23;99785.59;6230431;22;20347;-64
2022/08/18 05:20:43;;;;;;;147.52;110.25;;;;;;;26.59;39.23;99790.72;6202924;22;20742;-64
2022/08/18 05:23:08;;;;;;;151.93;113.85;;;;;;;26.90;39.31;99795.56;6203781;22;20533;-63
2022/08/18 05:25:33;;;;;;;154.32;113.65;;;;;;;27.02;38.89;99794.75;6230298;22;20534;-65
2022/08/18 05:27:57;;;;;;;144.00;109.30;;;;;;;26.99;38.38;99794.31;6230360;22;20015;-64
2022/08/18 05:30:22;;;;;;;141.82;108.45;;;;;;;26.87;38.38;99793.25;6203216;22;20049;-64
2022/08/18 05:32:47;;;;;;;139.65;107.55;;;;;;;26.74;38.62;99794.09;6177687;22;20069;-64
2022/08/18 05:35:17;;;;;;;142.15;108.68;;;;;;;26.69;38.45;99792.00;6230378;22;20020;-64
2022/08/18 05:37:57;;;;;;;139.98;107.95;;;;;;;26.79;38.58;99794.31;6152592;22;20098;-64
2022/08/18 05:40:23;;;;;;;147.02;107.65;;;;;;;26.84;38.64;99786.31;6230257;22;20466;-65
2022/08/18 05:42:48;;;;;;;144.18;110.82;;;;;;;26.96;38.75;99787.41;6202619;22;20015;-65
2022/08/18 05:45:17;;;;;;;139.80;106.18;;;;;;;27.20;38.06;99791.34;6202915;22;20150;-65
2022/08/18 05:47:42;;;;;;;136.63;104.60;;;;;;;27.46;37.43;99791.28;6203267;22;20042;-64
2022/08/18 05:50:09;;;;;;;137.35;102.03;;;;;;;27.77;37.29;99787.81;6230198;22;20026;-65
2022/08/18 05:52:58;;;;;;;137.10;104.72;;;;;;;28.21;36.58;99797.13;6203102;22;20016;-64
2022/08/18 05:58:20;;;;;;;132.80;99.30;;;;;;;28.86;35.36;99795.84;6229804;22;20388;-65
2022/08/18 06:00:53;;;;;;;127.55;97.78;;;;;;;28.98;35.42;99804.19;6177246;22;20451;-65
2022/08/18 06:03:24;;;;;;;126.55;93.13;;;;;;;29.19;35.00;99800.19;6229878;22;20018;-65
2022/08/18 06:05:56;;;;;;;115.93;86.82;;;;;;;29.52;34.19;99803.44;6229521;22;20043;-65
2022/08/18 06:08:26;;;;;;;108.30;79.82;;;;;;;29.90;33.51;99808.69;6202576;22;20016;-65
2022/08/18 06:10:51;;;;;;;102.93;75.00;;;;;;;30.17;32.65;99803.69;6202684;22;20094;-65
2022/08/18 06:13:18;;;;;;;100.93;76.97;;;;;;;30.40;32.63;99818.59;6229760;22;20501;-65
2022/08/18 06:16:34;;;;;;;104.53;76.82;;;;;;;30.80;32.25;99818.88;6229815;22;20539;-65
2022/08/18 06:19:05;;;;;;;100.60;77.03;;;;;;;30.99;31.60;99817.69;6202480;22;20043;-65
2022/08/18 06:21:40;;;;;;;108.53;75.55;;;;;;;31.37;30.96;99814.50;6202533;22;20019;-67
2022/08/18 06:24:11;;;;;;;95.97;72.93;;;;;;;31.98;30.48;99808.41;6229698;22;20094;-66
2022/08/18 06:26:49;;;;;;;98.28;75.75;;;;;;;32.49;30.17;99805.81;6229632;22;20019;-66
2022/08/18 06:29:51;;;;;;;97.38;72.30;;;;;;;32.98;29.58;99809.72;6229279;22;20020;-67
2022/08/18 06:32:44;;;;;;;91.85;72.07;;;;;;;33.43;28.81;99813.22;6177052;22;20520;-67
2022/08/18 06:35:16;;;;;;;95.65;72.88;;;;;;;33.49;27.94;99814.97;6229811;22;20043;-66
2022/08/18 06:41:10;;;;;;;98.43;73.38;;;;;;;34.19;28.00;99817.00;6229742;22;20015;-66
2022/08/18 06:43:37;;;;;;;94.30;72.22;;;;;;;34.40;25.96;99831.09;6229315;22;20458;-66
2022/08/18 06:46:11;;;;;;;96.45;73.63;;;;;;;34.56;26.58;99824.59;6229280;22;20016;-65
2022/08/18 06:48:52;;;;;;;95.97;73.40;;;;;;;34.84;25.67;99829.03;6177016;22;20023;-65
2022/08/18 06:51:20;;;;;;;74.88;59.38;;;;;;;35.12;24.87;99825.09;6151939;22;20095;-65
2022/08/18 06:54:07;;;;;;;71.63;56.75;;;;;;;35.49;25.29;99830.66;6202199;22;20455;-66
2022/08/18 06:56:54;;;;;;;68.63;50.92;;;;;;;35.35;24.93;99827.50;6176779;22;20034;-65
2022/08/18 06:59:32;;;;;;;61.15;49.53;;;;;;;34.56;24.55;99827.34;6151901;22;20007;-65
2022/08/18 07:02:11;;;;;;;63.42;48.55;;;;;;;34.22;25.27;99835.00;6202108;22;20026;-65
2022/08/18 07:04:43;;;;;;;63.63;49.28;;;;;;;34.16;25.23;99823.03;6202382;22;20455;-67
2022/08/18 07:07:35;;;;;;;62.50;47.80;;;;;;;34.61;25.91;99824.66;6229402;22;20617;-66
2022/08/18 07:10:03;;;;;;;58.05;42.72;;;;;;;34.87;25.21;99826.59;6177005;22;20022;-67
2022/08/18 07:12:29;;;;;;;62.90;41.10;;;;;;;34.86;25.11;99827.69;6202308;22;20021;-66
2022/08/18 07:15:00;;;;;;;66.72;41.58;;;;;;;34.91;25.15;99832.41;6202037;22;20015;-65
2022/08/18 07:17:32;;;;;;;50.72;37.67;;;;;;;34.93;24.47;99838.53;6176628;22;20024;-65
2022/08/18 07:20:09;;;;;;;49.85;35.22;;;;;;;34.66;24.26;99834.91;6229108;22;20355;-65
2022/08/18 07:23:00;;;;;;;40.50;30.40;;;;;;;34.69;24.40;99838.00;6201868;22;20019;-65
2022/08/18 07:25:30;;;;;;;39.70;28.48;;;;;;;34.21;24.97;99834.16;6201945;22;20054;-65
2022/08/18 07:27:56;;;;;;;32.75;25.58;;;;;;;34.01;24.36;99819.25;6229026;22;20026;-64
2022/08/18 07:30:29;;;;;;;35.85;27.83;;;;;;;33.63;24.95;99825.66;6202086;22;20020;-64
2022/08/18 07:33:06;;;;;;;41.30;26.48;;;;;;;33.68;25.60;99829.31;6176686;22;20094;-65
2022/08/18 07:35:44;;;;;;;36.63;24.45;;;;;;;34.47;25.11;99831.69;6202080;22;20442;-65
2022/08/18 07:38:41;;;;;;;41.92;24.58;;;;;;;35.39;23.74;99831.44;6201819;22;20146;-65
2022/08/18 07:41:15;;;;;;;33.85;21.35;;;;;;;36.09;23.19;99830.16;6193652;22;20015;-66
2022/08/18 07:43:50;;;;;;;27.40;20.73;;;;;;;36.43;22.60;99830.56;6176468;22;20020;-65
2022/08/18 07:47:05;;;;;;;37.00;19.40;;;;;;;36.63;22.30;99838.06;6176498;22;20012;-65
2022/08/18 07:49:34;;;;;;;18.67;13.88;;;;;;;36.61;21.64;99849.47;6228829;22;20027;-66
2022/08/18 07:52:05;;;;;;;14.23;12.45;;;;;;;36.25;21.35;99842.97;6228921;22;20027;-66
2022/08/18 07:54:55;;;;;;;15.25;13.38;;;;;;;35.99;21.68;99838.44;6201767;22;20020;-65
2022/08/18 07:57:32;;;;;;;16.70;12.23;;;;;;;35.99;22.11;99841.22;6202009;22;20016;-65
2022/08/18 08:00:06;;;;;;;17.40;11.50;;;;;;;36.13;21.57;99850.69;6229165;22;20297;-66
2022/08/18 08:03:23;;;;;;;17.25;11.68;;;;;;;36.77;21.24;99853.13;6228867;22;20015;-67
2022/08/18 08:06:07;;;;;;;15.82;11.65;;;;;;;36.98;21.40;99834.50;6201718;22;20355;-67
2022/08/18 08:08:43;;;;;;;16.80;10.40;;;;;;;38.02;19.94;99841.28;6229238;22;20530;-67
2022/08/18 08:11:34;;;;;;;12.18;10.27;;;;;;;38.71;19.34;99849.59;6229131;22;20050;-66
2022/08/18 08:14:11;;;;;;;17.05;11.43;;;;;;;38.68;19.05;99847.38;6201728;22;20016;-67
2022/08/18 08:16:43;;;;;;;18.67;10.80;;;;;;;38.99;19.50;99844.38;6201655;22;20015;-66
2022/08/18 08:19:34;;;;;;;12.98;10.38;;;;;;;40.13;19.01;99837.03;6201859;22;20011;-64
2022/08/18 08:22:15;;;;;;;20.88;15.40;;;;;;;41.09;17.66;99848.75;6188695;22;20531;-63
2022/08/18 08:25:00;;;;;;;13.20;10.73;;;;;;;41.93;17.26;99841.03;6238780;22;20022;-64
2022/08/18 08:27:47;;;;;;;15.10;11.15;;;;;;;42.60;16.85;99846.06;6227883;22;20020;-63
2022/08/18 08:30:16;;;;;;;13.35;10.82;;;;;;;42.45;16.36;99843.59;6203407;22;20019;-66
2022/08/18 08:33:36;;;;;;;12.43;10.07;;;;;;;42.84;16.53;99835.41;6230639;22;20073;-67
2022/08/18 08:36:07;;;;;;;22.92;12.05;;;;;;;43.04;15.86;99837.69;6020844;23;20077;-66
2022/08/18 08:38:38;;;;;;;15.60;12.15;;;;;;;43.92;15.50;99840.63;5996966;23;20517;-67
2022/08/18 08:41:27;;;;;;;16.95;11.57;;;;;;;44.77;14.45;99844.81;6000162;23;20022;-68
2022/08/18 08:44:06;;;;;;;15.45;11.57;;;;;;;45.59;14.38;99848.50;6020752;23;20022;-67
2022/08/18 08:46:41;;;;;;;14.95;10.93;;;;;;;45.59;13.88;99839.22;6021050;23;20117;-65
2022/08/18 08:49:34;;;;;;;16.35;11.18;;;;;;;45.83;14.50;99837.44;5996777;23;20348;-65
2022/08/18 08:52:06;;;;;;;12.40;10.82;;;;;;;45.68;13.74;99843.66;5988639;23;20029;-65
2022/08/18 08:55:12;;;;;;;14.00;11.52;;;;;;;45.41;14.05;99836.44;6021459;23;20022;-68
2022/08/18 08:57:46;;;;;;;12.85;10.75;;;;;;;45.68;13.79;99846.47;5936419;24;20080;-68
2022/08/18 09:00:13;;;;;;;16.15;11.65;;;;;;;44.88;14.23;99828.41;5936308;24;20095;-68
2022/08/18 09:03:01;;;;;;;12.23;11.13;;;;;;;44.52;14.56;99825.91;5936386;24;20439;-68
2022/08/18 09:05:30;;;;;;;15.98;11.43;;;;;;;45.24;14.14;99830.88;5935792;24;20024;-68
2022/08/18 09:08:09;;;;;;;13.60;12.25;;;;;;;45.56;13.63;99827.47;5912958;24;20134;-68
2022/08/18 09:10:33;;;;;;;14.18;10.57;;;;;;;45.53;13.04;99825.31;5936394;24;20372;-70
2022/08/18 09:13:16;;;;;;;13.35;10.50;;;;;;;45.32;13.67;99824.38;5997662;23;20353;-68
2022/08/18 09:16:06;;;;;;;10.05;8.82;;;;;;;46.08;12.89;99844.13;6088545;23;20022;-68
2022/08/18 09:18:49;;;;;;;12.98;8.40;;;;;;;45.17;13.23;99831.34;6054369;23;20530;-67
2022/08/18 09:21:44;;;;;;;14.90;8.95;;;;;;;44.66;13.28;99823.78;6078927;23;20046;-68
2022/08/18 09:24:19;;;;;;;10.45;8.15;;;;;;;43.42;14.26;99810.03;6078688;23;20370;-69
2022/08/18 09:26:51;;;;;;;9.93;8.43;;;;;;;43.47;14.20;99818.28;6054315;23;20033;-68
2022/08/18 09:29:38;;;;;;;10.13;6.75;;;;;;;44.21;14.58;99819.59;6078772;23;20465;-69
2022/08/18 09:32:18;;;;;;;14.95;8.85;;;;;;;45.49;13.51;99823.50;6131284;22;20343;-66
2022/08/18 09:34:50;;;;;;;18.85;11.60;;;;;;;46.15;12.97;99824.69;6213249;22;20102;-67
2022/08/18 09:37:40;;;;;;;10.18;8.93;;;;;;;47.36;12.22;99831.28;6240582;22;20356;-67
2022/08/18 09:43:15;;;;;;;11.00;9.95;;;;;;;46.49;12.58;99817.16;6230084;22;20090;-63
2022/08/18 09:45:46;;;;;;;11.05;9.20;;;;;;;45.94;12.84;99809.75;6202949;22;20026;-68
2022/08/18 09:48:11;;;;;;;20.17;9.00;;;;;;;45.91;12.44;99810.41;6177399;22;20087;-64
2022/08/18 09:51:00;;;;;;;11.38;10.35;;;;;;;46.19;12.42;99808.72;6229793;22;20092;-64
2022/08/18 09:54:08;;;;;;;10.73;8.40;;;;;;;46.30;12.40;99831.72;6229697;22;20037;-67
2022/08/18 09:56:52;;;;;;;13.15;8.57;;;;;;;45.40;12.76;99811.41;6077683;23;20029;-64
2022/08/18 09:59:32;;;;;;;10.30;7.95;;;;;;;44.88;12.87;99816.34;6077911;23;20014;-65
2022/08/18 10:01:57;;;;;;;21.77;8.93;;;;;;;44.29;13.50;99810.31;6029287;23;20018;-64
2022/08/18 10:04:47;;;;;;;11.15;8.77;;;;;;;43.87;13.44;99815.50;6052985;23;20102;-65
2022/08/18 10:07:18;;;;;;;11.45;8.25;;;;;;;42.86;14.21;99802.25;6077564;23;20374;-65
2022/08/18 10:09:57;;;;;;;11.70;8.27;;;;;;;43.39;14.47;99807.03;6077688;23;20089;-65
2022/08/18 10:12:28;;;;;;;8.85;7.95;;;;;;;43.38;13.51;99808.19;6077586;23;20022;-65
2022/08/18 10:14:59;;;;;;;8.98;7.35;;;;;;;43.35;14.06;99795.63;6077714;23;20021;-65
2022/08/18 10:17:38;;;;;;;13.40;7.50;;;;;;;43.55;13.98;99802.66;6053257;23;20021;-65
2022/08/18 10:20:16;;;;;;;14.23;8.77;;;;;;;44.06;13.46;99801.19;6029023;23;20099;-66
2022/08/18 10:22:45;;;;;;;8.85;7.35;;;;;;;43.10;14.06;99802.75;6062981;23;20331;-65
2022/08/18 10:25:13;;;;;;;13.05;7.80;;;;;;;41.40;15.55;99797.88;6053384;23;20017;-64
2022/08/18 10:27:43;;;;;;;12.98;7.10;;;;;;;39.75;16.91;99779.41;6077825;23;20469;-65
2022/08/18 10:30:29;;;;;;;12.57;7.28;;;;;;;38.54;18.02;99787.00;6052873;23;20014;-66
2022/08/18 10:32:54;;;;;;;12.82;6.88;;;;;;;37.04;18.88;99797.25;6211997;22;20445;-64
2022/08/18 10:35:34;;;;;;;14.65;6.80;;;;;;;36.02;19.91;99790.69;6229928;22;20073;-65
2022/08/18 10:38:04;;;;;;;8.68;6.60;;;;;;;34.19;21.73;99777.41;6202189;22;20011;-64
2022/08/18 10:40:30;;;;;;;7.57;5.82;;;;;;;33.47;21.99;99783.97;6152105;22;20413;-64
2022/08/18 10:43:07;;;;;;;8.90;5.88;;;;;;;32.83;22.95;99784.63;6229748;22;20020;-65
2022/08/18 10:45:44;;;;;;;10.50;6.80;;;;;;;31.99;23.99;99773.38;6202513;22;20023;-66
2022/08/18 10:48:28;;;;;;;12.02;5.13;;;;;;;31.55;24.34;99773.00;6202176;22;20022;-66
2022/08/18 10:50:59;;;;;;;;;;;;;;;31.60;23.51;99770.38;6177052;22;20020;-66
2022/08/18 10:53:32;;;;;;;7.15;5.03;;;;;;;31.08;23.70;99777.69;6239636;22;19917;-66
2022/08/18 10:56:03;;;;;;;;;;;;;;;31.11;23.05;99781.94;6230237;22;20443;-66
2022/08/18 10:58:42;;;;;;;10.48;5.22;;;;;;;30.38;23.68;99776.72;6239836;22;19911;-64
2022/08/18 11:01:19;;;;;;;11.38;5.32;;;;;;;30.01;24.86;99776.03;6201862;22;20034;-63
2022/08/18 11:03:54;;;;;;;11.82;5.40;;;;;;;29.76;26.30;99768.69;6176962;22;20035;-64
2022/08/18 11:06:23;;;;;;;11.20;6.10;;;;;;;29.81;26.81;99765.25;6201829;22;20024;-64
2022/08/18 11:08:52;;;;;;;14.38;6.57;;;;;;;29.64;26.95;99773.28;6229013;22;20450;-67
2022/08/18 11:11:25;;;;;;;8.40;5.07;;;;;;;29.47;27.12;99752.97;6177168;22;20011;-66
2022/08/18 11:14:02;;;;;;;9.43;5.40;;;;;;;29.44;26.90;99753.47;6202615;22;20027;-65
2022/08/18 11:17:14;;;;;;;6.75;4.40;;;;;;;29.74;25.39;99765.34;6229106;22;20015;-67
2022/08/18 11:19:43;;;;;;;9.98;6.30;;;;;;;29.48;25.37;99760.16;6052349;23;20017;-67
2022/08/18 11:22:30;;;;;;;7.88;5.18;;;;;;;29.48;25.64;99772.00;6077154;23;20014;-66
2022/08/18 11:24:55;;;;;;;8.02;4.78;;;;;;;29.26;25.49;99767.97;6076795;23;20022;-67
2022/08/18 11:27:23;;;;;;;5.47;4.60;;;;;;;29.12;25.48;99771.97;6052339;23;20422;-67
2022/08/18 11:29:50;;;;;;;12.43;8.13;;;;;;;29.05;25.73;99760.19;6052371;23;20018;-66
2022/08/18 11:32:34;;;;;;;8.43;4.75;;;;;;;29.10;25.65;99758.44;6076931;23;20450;-67
2022/08/18 11:35:22;;;;;;;7.90;4.85;;;;;;;28.98;26.47;99754.78;6052706;23;20381;-66
2022/08/18 11:37:50;;;;;;;9.43;5.80;;;;;;;28.96;26.49;99765.13;6052752;23;20034;-67
2022/08/18 11:40:17;;;;;;;9.05;5.07;;;;;;;28.93;26.64;99753.75;6077133;23;20354;-68
2022/08/18 11:42:52;;;;;;;7.75;4.43;;;;;;;28.88;26.64;99746.22;6076960;23;20425;-69
2022/08/18 11:45:22;;;;;;;11.48;4.90;;;;;;;28.85;26.22;99749.41;6086752;23;20481;-68
2022/08/18 11:48:16;;;;;;;7.90;4.30;;;;;;;28.83;25.84;99746.88;6077588;23;20350;-68
2022/08/18 11:50:53;;;;;;;;;;;;;;;28.98;25.62;99776.72;6171010;22;20477;-68
2022/08/18 11:53:36;;;;;;;13.57;4.63;;;;;;;28.82;25.61;99755.34;6212471;22;19918;-70
2022/08/18 11:56:10;;;;;;;9.70;4.82;;;;;;;28.75;25.72;99760.88;6229402;22;20438;-69
2022/08/18 11:58:47;;;;;;;10.60;5.82;;;;;;;28.72;25.64;99761.31;6151302;22;20355;-69